createdAt,value
2016-06-09T00:00:35.454Z,63.29
2016-06-09T00:01:35.489Z,61.02
2016-06-09T00:02:35.539Z,62.55
2016-06-09T00:03:35.620Z,61.02
2016-06-09T00:04:35.639Z,58.84
2016-06-09T00:05:35.689Z,60.82
2016-06-09T00:06:35.723Z,59.03
2016-06-09T00:07:35.773Z,60.28
2016-06-09T00:08:35.824Z,61.21
2016-06-09T00:09:35.873Z,59.67
2016-06-09T00:10:35.908Z,60.05
2016-06-09T00:11:35.972Z,60.53
2016-06-09T00:12:36.007Z,60.63
2016-06-09T00:13:36.057Z,61.49
2016-06-09T00:14:36.106Z,59.51
2016-06-09T00:15:36.156Z,59.41
2016-06-09T00:16:36.191Z,59.12
2016-06-09T00:17:36.241Z,61.21
2016-06-09T00:18:36.290Z,58.84
2016-06-09T00:19:36.341Z,58.04
2016-06-09T00:20:36.375Z,58.71
2016-06-09T00:21:36.425Z,59.48
2016-06-09T00:22:36.475Z,58.71
2016-06-09T00:23:36.557Z,60.6
2016-06-09T00:24:36.575Z,58.71
2016-06-09T00:25:36.625Z,58.97
2016-06-09T00:26:36.660Z,60.5
2016-06-09T00:27:36.710Z,60.12
2016-06-09T00:28:36.775Z,60
2016-06-09T00:29:36.809Z,63.16
2016-06-09T00:30:36.844Z,61.15
2016-06-09T00:31:36.909Z,58.97
2016-06-09T00:32:36.944Z,59.93
2016-06-09T00:33:36.994Z,60.6
2016-06-09T00:34:37.043Z,58.39
2016-06-09T00:35:37.094Z,60.76
2016-06-09T00:36:37.128Z,61.08
2016-06-09T00:37:37.193Z,58.69
2016-06-09T00:38:37.228Z,59.06
2016-06-09T00:39:37.277Z,59.8
2016-06-09T00:40:37.327Z,60.28
2016-06-09T00:41:37.378Z,60.41
2016-06-09T00:42:37.412Z,62.1
2016-06-09T00:43:37.461Z,59.42
2016-06-09T00:44:37.512Z,61.34
2016-06-09T00:45:37.561Z,60.38
2016-06-09T00:46:37.596Z,58.49
2016-06-09T00:47:37.662Z,58.69
2016-06-09T00:48:37.993Z,63.09
2016-06-09T00:49:37.746Z,59.64
2016-06-09T00:50:37.842Z,58.49
2016-06-09T00:51:37.831Z,60.7
2016-06-09T00:52:37.895Z,59.06
2016-06-09T00:53:37.931Z,61.27
2016-06-09T00:54:37.980Z,58.01
2016-06-09T00:55:38.045Z,61.18
2016-06-09T00:56:38.095Z,58.14
2016-06-09T00:57:38.130Z,57.85
2016-06-09T00:58:38.164Z,59.45
2016-06-09T00:59:38.214Z,60.05
2016-06-09T01:00:38.248Z,59.67
2016-06-09T01:01:38.314Z,59.09
2016-06-09T01:02:38.348Z,59
2016-06-09T01:03:38.398Z,61.21
2016-06-09T01:04:38.432Z,56.82
2016-06-09T01:05:38.499Z,58.81
2016-06-09T01:06:38.532Z,59.51
2016-06-09T01:07:38.582Z,59.32
2016-06-09T01:08:38.632Z,56.82
2016-06-09T01:09:38.667Z,56.73
2016-06-09T01:10:38.576Z,57.97
2016-06-09T01:11:38.782Z,57.68
2016-06-09T01:12:38.817Z,57.59
2016-06-09T01:13:38.851Z,56.24
2016-06-09T01:14:38.901Z,57.88
2016-06-09T01:15:38.951Z,60.35
2016-06-09T01:16:39.016Z,58.36
2016-06-09T01:17:39.050Z,57.88
2016-06-09T01:18:40.320Z,58.07
2016-06-09T01:19:39.150Z,59.12
2016-06-09T01:20:39.200Z,57.88
2016-06-09T01:21:39.235Z,56.46
2016-06-09T01:22:39.285Z,58.55
2016-06-09T01:23:39.334Z,58.07
2016-06-09T01:24:39.385Z,55.79
2016-06-09T01:25:39.435Z,58.55
2016-06-09T01:26:39.485Z,59.67
2016-06-09T01:27:39.534Z,59.38
2016-06-09T01:28:39.569Z,61.05
2016-06-09T01:29:39.620Z,58.77
2016-06-09T01:30:39.669Z,57.14
2016-06-09T01:31:39.703Z,55.89
2016-06-09T01:32:39.753Z,57.43
2016-06-09T01:33:39.819Z,58.39
2016-06-09T01:34:39.712Z,57.71
2016-06-09T01:35:39.902Z,54.19
2016-06-09T01:36:39.938Z,55.53
2016-06-09T01:37:40.002Z,56.18
2016-06-09T01:38:40.037Z,55.69
2016-06-09T01:39:40.087Z,56.27
2016-06-09T01:40:40.121Z,58.55
2016-06-09T01:41:40.187Z,57.21
2016-06-09T01:42:40.221Z,57.88
2016-06-09T01:43:40.115Z,58.74
2016-06-09T01:44:40.321Z,55.89
2016-06-09T01:45:40.372Z,54.55
2016-06-09T01:46:40.421Z,55.47
2016-06-09T01:47:40.472Z,56.6
2016-06-09T01:48:40.537Z,57.65
2016-06-09T01:49:40.556Z,55.93
2016-06-09T01:50:40.652Z,57.37
2016-06-09T01:51:40.655Z,57.59
2016-06-09T01:52:40.705Z,55.96
2016-06-09T01:53:40.740Z,59.7
2016-06-09T01:54:40.788Z,58.84
2016-06-09T01:55:40.855Z,56.56
2016-06-09T01:56:40.905Z,56.59
2016-06-09T01:57:40.939Z,55.91
2016-06-09T01:58:40.989Z,54.86
2016-06-09T01:59:41.040Z,55.73
2016-06-09T02:00:41.073Z,50.08
2016-06-09T02:01:41.139Z,52.65
2016-06-09T02:02:41.189Z,54.83
2016-06-09T02:03:41.224Z,52.65
2016-06-09T02:04:41.258Z,55.99
2016-06-09T02:05:41.323Z,53.58
2016-06-09T02:06:41.373Z,53.39
2016-06-09T02:07:41.408Z,55.47
2016-06-09T02:08:41.457Z,54.13
2016-06-09T02:09:41.507Z,54.13
2016-06-09T02:10:41.557Z,56.51
2016-06-09T02:11:41.591Z,55.93
2016-06-09T02:12:41.641Z,55.86
2016-06-09T02:13:41.708Z,53.66
2016-06-09T02:14:41.741Z,55.93
2016-06-09T02:15:41.792Z,54.88
2016-06-09T02:16:41.826Z,57.46
2016-06-09T02:17:41.876Z,54.8
2016-06-09T02:18:41.925Z,55.96
2016-06-09T02:19:42.148Z,54.9
2016-06-09T02:20:42.026Z,56.92
2016-06-09T02:21:42.075Z,53.75
2016-06-09T02:22:42.110Z,55.77
2016-06-09T02:23:42.160Z,52.79
2016-06-09T02:24:42.225Z,53.46
2016-06-09T02:25:42.088Z,54.55
2016-06-09T02:26:42.294Z,52.81
2016-06-09T02:27:42.359Z,52.91
2016-06-09T02:28:42.394Z,54.55
2016-06-09T02:29:42.444Z,51.28
2016-06-09T02:30:42.494Z,54.04
2016-06-09T02:31:42.544Z,53.49
2016-06-09T02:32:42.578Z,54.16
2016-06-09T02:33:43.066Z,54.35
2016-06-09T02:34:42.678Z,52.81
2016-06-09T02:35:42.728Z,53.87
2016-06-09T02:36:42.778Z,52.12
2016-06-09T02:37:42.828Z,52.5
2016-06-09T02:38:42.863Z,54.33
2016-06-09T02:39:42.912Z,52
2016-06-09T02:40:42.977Z,52.57
2016-06-09T02:41:43.013Z,54.97
2016-06-09T02:42:43.062Z,53.46
2016-06-09T02:43:43.111Z,54.33
2016-06-09T02:44:43.162Z,54.42
2016-06-09T02:45:43.195Z,53.75
2016-06-09T02:46:43.246Z,52.72
2016-06-09T02:47:43.296Z,54.33
2016-06-09T02:48:43.626Z,55.47
2016-06-09T02:49:43.349Z,53.97
2016-06-09T02:50:43.493Z,51.18
2016-06-09T02:51:43.496Z,52.94
2016-06-09T02:52:43.530Z,53.03
2016-06-09T02:53:43.595Z,52.75
2016-06-09T02:54:43.630Z,51.98
2016-06-09T02:55:43.665Z,50.76
2016-06-09T02:56:43.714Z,51.23
2016-06-09T02:57:43.779Z,50.37
2016-06-09T02:58:43.799Z,50.66
2016-06-09T02:59:43.864Z,51.23
2016-06-09T03:00:43.898Z,49.69
2016-06-09T03:01:43.949Z,50.73
2016-06-09T03:02:43.998Z,50.73
2016-06-09T03:03:44.048Z,51.72
2016-06-09T03:04:44.098Z,49.89
2016-06-09T03:05:44.149Z,50.76
2016-06-09T03:06:44.182Z,50.3
2016-06-09T03:07:44.232Z,50.1
2016-06-09T03:08:44.283Z,47.31
2016-06-09T03:09:44.333Z,50.2
2016-06-09T03:10:44.382Z,49.05
2016-06-09T03:11:44.433Z,49.91
2016-06-09T03:12:44.483Z,49.15
2016-06-09T03:13:44.532Z,48.76
2016-06-09T03:14:44.566Z,48.76
2016-06-09T03:15:44.617Z,48.85
2016-06-09T03:16:44.666Z,49.79
2016-06-09T03:17:44.576Z,50.66
2016-06-09T03:18:45.626Z,51.21
2016-06-09T03:19:45.175Z,51.59
2016-06-09T03:20:44.866Z,50.73
2016-06-09T03:21:44.900Z,51.31
2016-06-09T03:22:44.950Z,50.73
2016-06-09T03:23:45.000Z,50.05
2016-06-09T03:24:45.050Z,53.01
2016-06-09T03:25:45.101Z,51.28
2016-06-09T03:26:45.151Z,50.82
2016-06-09T03:27:45.199Z,52.91
2016-06-09T03:28:45.235Z,52.55
2016-06-09T03:29:45.285Z,51.4
2016-06-09T03:30:45.334Z,49.38
2016-06-09T03:31:45.400Z,50.25
2016-06-09T03:32:45.451Z,52.34
2016-06-09T03:33:45.484Z,53.01
2016-06-09T03:34:45.534Z,53.3
2016-06-09T03:35:45.569Z,51.18
2016-06-09T03:36:45.619Z,52.08
2016-06-09T03:37:45.668Z,50.82
2016-06-09T03:38:45.719Z,53.3
2016-06-09T03:39:45.769Z,52.02
2016-06-09T03:40:45.803Z,53.75
2016-06-09T03:41:45.867Z,54.45
2016-06-09T03:42:45.903Z,51.95
2016-06-09T03:43:45.953Z,53.32
2016-06-09T03:44:46.002Z,53.03
2016-06-09T03:45:46.052Z,51.31
2016-06-09T03:46:46.118Z,50.92
2016-06-09T03:47:46.136Z,50.44
2016-06-09T03:48:46.577Z,52.24
2016-06-09T03:49:46.690Z,52.62
2016-06-09T03:50:46.333Z,54.52
2016-06-09T03:51:46.320Z,53.94
2016-06-09T03:52:46.371Z,53.75
2016-06-09T03:53:46.421Z,52.98
2016-06-09T03:54:46.470Z,53.75
2016-06-09T03:55:46.521Z,55.83
2016-06-09T03:56:46.571Z,54.42
2016-06-09T03:57:46.621Z,54.13
2016-06-09T03:58:46.655Z,53.94
2016-06-09T03:59:46.705Z,53.3
2016-06-09T04:00:46.755Z,54.55
2016-06-09T04:01:46.804Z,53.87
2016-06-09T04:02:46.855Z,53.68
2016-06-09T04:03:46.905Z,54.64
2016-06-09T04:04:46.970Z,53.87
2016-06-09T04:05:46.989Z,52.72
2016-06-09T04:06:47.039Z,52.26
2016-06-09T04:07:47.089Z,52.08
2016-06-09T04:08:47.122Z,52.75
2016-06-09T04:09:47.173Z,52.39
2016-06-09T04:10:47.223Z,52.1
2016-06-09T04:11:47.273Z,51.72
2016-06-09T04:12:47.167Z,50.66
2016-06-09T04:13:47.373Z,51.43
2016-06-09T04:14:47.266Z,51.62
2016-06-09T04:15:47.458Z,50.18
2016-06-09T04:16:47.508Z,49.53
2016-06-09T04:17:47.557Z,48.66
2016-06-09T04:18:47.606Z,51.43
2016-06-09T04:19:47.501Z,51.11
2016-06-09T04:20:47.707Z,51.5
2016-06-09T04:21:47.740Z,51.14
2016-06-09T04:22:47.807Z,50.46
2016-06-09T04:23:47.857Z,51.43
2016-06-09T04:24:47.891Z,50.95
2016-06-09T04:25:47.941Z,50.46
2016-06-09T04:26:47.991Z,50.76
2016-06-09T04:27:48.041Z,51.23
2016-06-09T04:28:48.075Z,51.02
2016-06-09T04:29:48.126Z,51.62
2016-06-09T04:30:48.176Z,52.36
2016-06-09T04:31:48.226Z,52.08
2016-06-09T04:32:48.274Z,51.76
2016-06-09T04:33:48.325Z,53.3
2016-06-09T04:34:48.391Z,53.94
2016-06-09T04:35:48.408Z,55.07
2016-06-09T04:36:48.475Z,57.08
2016-06-09T04:37:48.509Z,55.93
2016-06-09T04:38:48.559Z,54.68
2016-06-09T04:39:48.609Z,55.29
2016-06-09T04:40:48.659Z,56.76
2016-06-09T04:41:48.693Z,56.76
2016-06-09T04:42:48.759Z,57.72
2016-06-09T04:43:48.794Z,58.37
2016-06-09T04:44:48.843Z,57.82
2016-06-09T04:45:48.893Z,55.83
2016-06-09T04:46:48.928Z,54.8
2016-06-09T04:47:48.978Z,55.47
2016-06-09T04:48:49.027Z,56.05
2016-06-09T04:49:49.093Z,54.61
2016-06-09T04:50:49.174Z,52.72
2016-06-09T04:51:49.177Z,53.3
2016-06-09T04:52:49.227Z,53.49
2016-06-09T04:53:49.261Z,52.94
2016-06-09T04:54:49.311Z,52.08
2016-06-09T04:55:49.361Z,52.36
2016-06-09T04:56:49.411Z,53.68
2016-06-09T04:57:49.462Z,55.19
2016-06-09T04:58:49.512Z,54.71
2016-06-09T04:59:49.576Z,54.93
2016-06-09T05:00:49.596Z,54.13
2016-06-09T05:01:49.646Z,54.61
2016-06-09T05:02:49.696Z,55.86
2016-06-09T05:03:49.745Z,55.47
2016-06-09T05:04:49.794Z,54.8
2016-06-09T05:05:49.830Z,54.64
2016-06-09T05:06:49.879Z,53.2
2016-06-09T05:07:49.945Z,53.32
2016-06-09T05:08:49.980Z,53.42
2016-06-09T05:09:50.029Z,52.46
2016-06-09T05:10:50.095Z,52.17
2016-06-09T05:11:50.130Z,53.61
2016-06-09T05:12:50.164Z,52.17
2016-06-09T05:13:50.229Z,52.94
2016-06-09T05:14:50.264Z,52.65
2016-06-09T05:15:50.314Z,53.03
2016-06-09T05:16:50.364Z,51.62
2016-06-09T05:17:50.413Z,51.62
2016-06-09T05:18:50.463Z,52.29
2016-06-09T05:19:50.513Z,52.84
2016-06-09T05:20:50.547Z,53.03
2016-06-09T05:21:50.597Z,52.84
2016-06-09T05:22:50.647Z,54.55
2016-06-09T05:23:50.697Z,55.29
2016-06-09T05:24:50.747Z,55.77
2016-06-09T05:25:50.782Z,55.67
2016-06-09T05:26:50.832Z,55.86
2016-06-09T05:27:50.882Z,54.9
2016-06-09T05:28:50.931Z,55.51
2016-06-09T05:29:50.997Z,54.93
2016-06-09T05:30:51.032Z,54.35
2016-06-09T05:31:51.066Z,53.61
2016-06-09T05:32:51.131Z,52.94
2016-06-09T05:33:51.181Z,53.32
2016-06-09T05:34:51.215Z,53.61
2016-06-09T05:35:51.266Z,54.93
2016-06-09T05:36:51.315Z,57.01
2016-06-09T05:37:51.365Z,58.91
2016-06-09T05:38:51.415Z,61.91
2016-06-09T05:39:51.466Z,63.03
2016-06-09T05:40:51.500Z,63.8
2016-06-09T05:41:51.566Z,63.13
2016-06-09T05:42:51.600Z,63.42
2016-06-09T05:43:51.649Z,62.2
2016-06-09T05:44:51.700Z,64.12
2016-06-09T05:45:51.733Z,63.45
2016-06-09T05:46:51.799Z,62.33
2016-06-09T05:47:51.849Z,60.99
2016-06-09T05:48:51.883Z,63
2016-06-09T05:49:51.777Z,62.3
2016-06-09T05:50:52.030Z,64.02
2016-06-09T05:51:52.017Z,62.49
2016-06-09T05:52:52.067Z,63.35
2016-06-09T05:53:52.117Z,63.16
2016-06-09T05:54:52.168Z,62.33
2016-06-09T05:55:52.202Z,60.89
2016-06-09T05:56:52.251Z,60.99
2016-06-09T05:57:52.302Z,62.96
2016-06-09T05:58:52.352Z,66.09
2016-06-09T05:59:52.386Z,66.16
2016-06-09T06:00:52.452Z,64.95
2016-06-09T06:01:52.487Z,64.09
2016-06-09T06:02:52.536Z,64.18
2016-06-09T06:03:52.587Z,66.67
2016-06-09T06:04:52.479Z,66
2016-06-09T06:05:52.685Z,63.99
2016-06-09T06:06:52.720Z,64.12
2016-06-09T06:07:52.785Z,65.33
2016-06-09T06:08:52.819Z,65.23
2016-06-09T06:09:52.870Z,66.93
2016-06-09T06:10:52.905Z,66.45
2016-06-09T06:11:52.954Z,65.68
2016-06-09T06:12:53.004Z,64.37
2016-06-09T06:13:53.054Z,63.8
2016-06-09T06:14:53.088Z,64.02
2016-06-09T06:15:53.138Z,64.22
2016-06-09T06:16:53.188Z,63.45
2016-06-09T06:17:53.238Z,62.52
2016-06-09T06:18:53.273Z,61.94
2016-06-09T06:19:53.870Z,62.81
2016-06-09T06:20:53.389Z,62.52
2016-06-09T06:21:53.423Z,60.7
2016-06-09T06:22:53.473Z,60.7
2016-06-09T06:23:53.538Z,60.99
2016-06-09T06:24:53.557Z,62.3
2016-06-09T06:25:53.607Z,63.13
2016-06-09T06:26:53.657Z,64.09
2016-06-09T06:27:53.707Z,66.06
2016-06-09T06:28:53.756Z,66.16
2016-06-09T06:29:53.807Z,66.45
2016-06-09T06:30:53.841Z,66.35
2016-06-09T06:31:53.890Z,66.45
2016-06-09T06:32:53.940Z,67.21
2016-06-09T06:33:53.991Z,67.37
2016-06-09T06:34:54.040Z,67.69
2016-06-09T06:35:53.919Z,67.5
2016-06-09T06:36:54.125Z,67.6
2016-06-09T06:37:54.175Z,68.27
2016-06-09T06:38:54.225Z,67.31
2016-06-09T06:39:54.275Z,67.5
2016-06-09T06:40:54.309Z,68.36
2016-06-09T06:41:54.203Z,68.42
2016-06-09T06:42:54.409Z,68.52
2016-06-09T06:43:54.460Z,68.55
2016-06-09T06:44:54.493Z,68.46
2016-06-09T06:45:54.543Z,67.6
2016-06-09T06:46:54.593Z,68.13
2016-06-09T06:47:54.644Z,68.46
2016-06-09T06:48:54.693Z,68.55
2016-06-09T06:49:55.118Z,68.55
2016-06-09T06:50:55.449Z,67.88
2016-06-09T06:51:54.670Z,67.69
2016-06-09T06:52:54.877Z,68.17
2016-06-09T06:53:54.927Z,68.55
2016-06-09T06:54:54.977Z,68.23
2016-06-09T06:55:55.027Z,68.71
2016-06-09T06:56:55.061Z,69.09
2016-06-09T06:57:55.111Z,68.42
2016-06-09T06:58:55.162Z,69.19
2016-06-09T06:59:55.212Z,69.09
2016-06-09T07:00:55.261Z,69
2016-06-09T07:01:55.295Z,68.52
2016-06-09T07:02:55.346Z,68.17
2016-06-09T07:03:55.396Z,67.11
2016-06-09T07:04:55.445Z,66.25
2016-06-09T07:05:55.949Z,66
2016-06-09T07:06:55.530Z,66.64
2016-06-09T07:07:55.580Z,66.93
2016-06-09T07:08:55.629Z,67.31
2016-06-09T07:09:55.679Z,67.66
2016-06-09T07:10:55.730Z,67.37
2016-06-09T07:11:55.763Z,68.62
2016-06-09T07:12:55.813Z,68.13
2016-06-09T07:13:55.863Z,67.98
2016-06-09T07:14:55.930Z,66.83
2016-06-09T07:15:55.963Z,66.29
2016-06-09T07:16:56.014Z,67.05
2016-06-09T07:17:56.047Z,67.6
2016-06-09T07:18:56.114Z,67.6
2016-06-09T07:19:56.148Z,67.47
2016-06-09T07:20:56.041Z,67.31
2016-06-09T07:21:56.232Z,67.5
2016-06-09T07:22:56.141Z,67.5
2016-06-09T07:23:56.347Z,67.69
2016-06-09T07:24:56.382Z,67.6
2016-06-09T07:25:56.276Z,66.74
2016-06-09T07:26:56.467Z,66.45
2016-06-09T07:27:56.517Z,66.74
2016-06-09T07:28:56.565Z,66.96
2016-06-09T07:29:56.616Z,67.88
2016-06-09T07:30:56.666Z,67.88
2016-06-09T07:31:56.700Z,67.79
2016-06-09T07:32:56.750Z,67.31
2016-06-09T07:33:56.799Z,68.07
2016-06-09T07:34:57.506Z,66.25
2016-06-09T07:35:57.166Z,65.91
2016-06-09T07:36:56.934Z,65.33
2016-06-09T07:37:57.000Z,66
2016-06-09T07:38:57.034Z,65.23
2016-06-09T07:39:57.084Z,65.05
2016-06-09T07:40:57.134Z,64.22
2016-06-09T07:41:57.184Z,64.5
2016-06-09T07:42:57.219Z,65.71
2016-06-09T07:43:57.268Z,66.09
2016-06-09T07:44:57.334Z,64.95
2016-06-09T07:45:57.368Z,63.83
2016-06-09T07:46:57.418Z,63.45
2016-06-09T07:47:57.453Z,63.16
2016-06-09T07:48:57.502Z,64.25
2016-06-09T07:49:57.568Z,63
2016-06-09T07:50:58.071Z,63.09
2016-06-09T07:51:57.653Z,62.81
2016-06-09T07:52:57.702Z,63.16
2016-06-09T07:53:57.736Z,62.81
2016-06-09T07:54:57.786Z,62.52
2016-06-09T07:55:57.837Z,65.65
2016-06-09T07:56:57.887Z,64.59
2016-06-09T07:57:57.937Z,66.19
2016-06-09T07:58:57.986Z,66
2016-06-09T07:59:58.021Z,66.77
2016-06-09T08:00:58.071Z,66.19
2016-06-09T08:01:58.121Z,66.77
2016-06-09T08:02:58.170Z,66.48
2016-06-09T08:03:58.220Z,66.48
2016-06-09T08:04:58.270Z,65.94
2016-06-09T08:05:58.321Z,66.77
2016-06-09T08:06:58.354Z,67.25
2016-06-09T08:07:58.421Z,67.15
2016-06-09T08:08:58.455Z,68.27
2016-06-09T08:09:58.504Z,67.98
2016-06-09T08:10:58.555Z,67.41
2016-06-09T08:11:58.589Z,68.78
2016-06-09T08:12:58.638Z,67.88
2016-06-09T08:13:58.689Z,66.96
2016-06-09T08:14:58.738Z,67.05
2016-06-09T08:15:58.804Z,68.01
2016-06-09T08:16:58.823Z,69.03
2016-06-09T08:17:58.888Z,69.13
2016-06-09T08:18:58.923Z,68.27
2016-06-09T08:19:58.817Z,68.87
2016-06-09T08:20:58.866Z,68.94
2016-06-09T08:21:59.073Z,69.13
2016-06-09T08:22:59.138Z,69.6
2016-06-09T08:23:59.157Z,69.03
2016-06-09T08:24:59.225Z,66.96
2016-06-09T08:25:59.301Z,65.17
2016-06-09T08:26:59.410Z,63.86
2016-06-09T08:27:59.486Z,62.29
2016-06-09T08:28:59.595Z,62.26
2016-06-09T08:29:59.655Z,62.19
2016-06-09T08:30:59.720Z,63.12
2016-06-09T08:31:59.801Z,64.72
2016-06-09T08:32:59.710Z,66.22
2016-06-09T08:33:59.915Z,66.32
2016-06-09T08:35:00.855Z,65.55
2016-06-09T08:36:00.036Z,65.46
2016-06-09T08:37:00.092Z,66.32
2016-06-09T08:38:00.147Z,66.71
2016-06-09T08:39:00.186Z,67.15
2016-06-09T08:40:00.241Z,67.05
2016-06-09T08:41:00.293Z,67.25
2016-06-09T08:42:00.346Z,67.63
2016-06-09T08:43:00.382Z,68.59
2016-06-09T08:44:00.450Z,68.59
2016-06-09T08:45:00.516Z,68.4
2016-06-09T08:46:00.551Z,67.25
2016-06-09T08:47:00.587Z,67.15
2016-06-09T08:48:00.481Z,67.09
2016-06-09T08:49:00.688Z,67.09
2016-06-09T08:50:00.739Z,66.22
2016-06-09T08:51:00.836Z,67.18
2016-06-09T08:52:00.823Z,68.78
2016-06-09T08:53:00.874Z,69.35
2016-06-09T08:54:00.925Z,70.18
2016-06-09T08:55:00.975Z,70.37
2016-06-09T08:56:01.010Z,70.18
2016-06-09T08:57:01.059Z,69.99
2016-06-09T08:58:01.110Z,70.37
2016-06-09T08:59:01.160Z,69.35
2016-06-09T09:00:01.209Z,69.35
2016-06-09T09:01:01.259Z,70.03
2016-06-09T09:02:01.293Z,70.28
2016-06-09T09:03:01.343Z,69.89
2016-06-09T09:04:01.393Z,71.14
2016-06-09T09:05:01.443Z,71.33
2016-06-09T09:06:01.884Z,71.33
2016-06-09T09:07:01.543Z,70.56
2016-06-09T09:08:01.577Z,70.28
2016-06-09T09:09:01.627Z,70.28
2016-06-09T09:10:01.677Z,70.21
2016-06-09T09:11:01.728Z,70.95
2016-06-09T09:12:01.777Z,71.71
2016-06-09T09:13:01.812Z,72.67
2016-06-09T09:14:01.862Z,72.54
2016-06-09T09:15:01.912Z,72.92
2016-06-09T09:16:01.961Z,72.58
2016-06-09T09:17:01.996Z,72.19
2016-06-09T09:18:02.062Z,72.38
2016-06-09T09:19:01.940Z,72.83
2016-06-09T09:20:02.130Z,73.4
2016-06-09T09:21:02.961Z,73.21
2016-06-09T09:22:02.230Z,72.92
2016-06-09T09:23:02.264Z,72.44
2016-06-09T09:24:02.314Z,72.54
2016-06-09T09:25:02.364Z,72.73
2016-06-09T09:26:02.414Z,72.83
2016-06-09T09:27:02.464Z,73.21
2016-06-09T09:28:02.514Z,72.44
2016-06-09T09:29:02.548Z,72.58
2016-06-09T09:30:02.598Z,72.38
2016-06-09T09:31:02.648Z,72.38
2016-06-09T09:32:02.697Z,70.28
2016-06-09T09:33:02.732Z,69.35
2016-06-09T09:34:02.782Z,69.07
2016-06-09T09:35:03.020Z,68.49
2016-06-09T09:36:02.898Z,68.91
2016-06-09T09:37:02.932Z,68.59
2016-06-09T09:38:02.983Z,68.62
2016-06-09T09:39:03.016Z,66.99
2016-06-09T09:40:03.066Z,67.22
2016-06-09T09:41:03.116Z,66.35
2016-06-09T09:42:03.167Z,66.16
2016-06-09T09:43:03.200Z,66.64
2016-06-09T09:44:03.267Z,66.55
2016-06-09T09:45:03.301Z,65.11
2016-06-09T09:46:03.351Z,65.78
2016-06-09T09:47:03.401Z,67.12
2016-06-09T09:48:03.449Z,67.57
2016-06-09T09:49:03.500Z,69.2
2016-06-09T09:50:03.550Z,68.97
2016-06-09T09:51:04.242Z,69.93
2016-06-09T09:52:03.635Z,70.79
2016-06-09T09:53:03.684Z,71.23
2016-06-09T09:54:03.734Z,71.33
2016-06-09T09:55:03.785Z,70.41
2016-06-09T09:56:03.835Z,68.97
2016-06-09T09:57:03.868Z,68.33
2016-06-09T09:58:03.919Z,67.95
2016-06-09T09:59:03.968Z,68.14
2016-06-09T10:00:03.862Z,66.8
2016-06-09T10:01:03.912Z,67.12
2016-06-09T10:02:04.118Z,66.99
2016-06-09T10:03:04.153Z,67.57
2016-06-09T10:04:04.203Z,67.09
2016-06-09T10:05:04.252Z,66.51
2016-06-09T10:06:04.677Z,65.88
2016-06-09T10:07:04.352Z,64.53
2016-06-09T10:08:04.402Z,63.29
2016-06-09T10:09:04.453Z,62.45
2016-06-09T10:10:04.346Z,61.72
2016-06-09T10:11:04.537Z,61.52
2016-06-09T10:12:04.587Z,61.81
2016-06-09T10:13:04.637Z,62.58
2016-06-09T10:14:04.687Z,62.77
2016-06-09T10:15:04.737Z,62.19
2016-06-09T10:16:04.786Z,62.1
2016-06-09T10:17:04.836Z,61.4
2016-06-09T10:18:04.886Z,61.43
2016-06-09T10:19:04.936Z,62.68
2016-06-09T10:20:04.970Z,63.7
2016-06-09T10:21:05.021Z,64.47
2016-06-09T10:22:05.070Z,64.47
2016-06-09T10:23:05.121Z,63.89
2016-06-09T10:24:05.171Z,64.28
2016-06-09T10:25:05.220Z,63.03
2016-06-09T10:26:05.270Z,62.29
2016-06-09T10:27:05.164Z,61.91
2016-06-09T10:28:05.355Z,61.62
2016-06-09T10:29:05.405Z,61.52
2016-06-09T10:30:05.454Z,60.95
2016-06-09T10:31:05.505Z,60.75
2016-06-09T10:32:05.554Z,59.73
2016-06-09T10:33:05.604Z,59.64
2016-06-09T10:34:05.638Z,59.54
2016-06-09T10:35:05.704Z,60.4
2016-06-09T10:36:05.927Z,60.21
2016-06-09T10:37:05.788Z,60.5
2016-06-09T10:38:05.838Z,60.88
2016-06-09T10:39:05.888Z,61.27
2016-06-09T10:40:05.939Z,60.69
2016-06-09T10:41:05.988Z,60.11
2016-06-09T10:42:06.023Z,59.57
2016-06-09T10:43:06.088Z,59.19
2016-06-09T10:44:06.138Z,59.76
2016-06-09T10:45:06.188Z,59.28
2016-06-09T10:46:06.223Z,58.7
2016-06-09T10:47:06.288Z,58.06
2016-06-09T10:48:06.322Z,57.58
2016-06-09T10:49:06.388Z,58.15
2016-06-09T10:50:06.422Z,57.87
2016-06-09T10:51:07.098Z,57.48
2016-06-09T10:52:06.991Z,57.1
2016-06-09T10:53:06.572Z,56.93
2016-06-09T10:54:06.622Z,57.13
2016-06-09T10:55:06.671Z,56.65
2016-06-09T10:56:06.722Z,56.26
2016-06-09T10:57:06.756Z,56.45
2016-06-09T10:58:06.806Z,55.81
2016-06-09T10:59:06.856Z,55.62
2016-06-09T11:00:06.907Z,55.43
2016-06-09T11:01:25.065Z,55.71
2016-06-09T11:02:07.007Z,55.9
2016-06-09T11:03:07.055Z,55.71
2016-06-09T11:04:07.106Z,55.9
2016-06-09T11:05:07.156Z,55.71
2016-06-09T11:06:07.939Z,55.43
2016-06-09T11:07:07.100Z,55.33
2016-06-09T11:08:07.306Z,54.36
2016-06-09T11:09:07.356Z,54.27
2016-06-09T11:10:07.406Z,55.81
2016-06-09T11:11:07.455Z,56.36
2016-06-09T11:12:07.505Z,56.26
2016-06-09T11:13:07.540Z,57.29
2016-06-09T11:14:07.605Z,57.48
2016-06-09T11:15:07.655Z,57.77
2016-06-09T11:16:07.705Z,58.06
2016-06-09T11:17:07.739Z,57.97
2016-06-09T11:18:07.789Z,57
2016-06-09T11:19:07.840Z,56.65
2016-06-09T11:20:07.889Z,57.39
2016-06-09T11:21:07.940Z,58.25
2016-06-09T11:22:08.630Z,59.09
2016-06-09T11:23:08.039Z,58.61
2016-06-09T11:24:14.574Z,57.84
2016-06-09T11:25:08.139Z,58.03
2016-06-09T11:26:08.189Z,57.39
2016-06-09T11:27:08.239Z,57.29
2016-06-09T11:28:08.290Z,56.55
2016-06-09T11:29:08.182Z,56.07
2016-06-09T11:30:08.389Z,56.45
2016-06-09T11:31:08.438Z,56.07
2016-06-09T11:32:08.488Z,54.94
2016-06-09T11:33:08.523Z,54.85
2016-06-09T11:34:08.589Z,56.1
2016-06-09T11:35:08.622Z,57.97
2016-06-09T11:36:08.689Z,58.7
2016-06-09T11:37:08.582Z,60.4
2016-06-09T11:38:08.773Z,60.69
2016-06-09T11:39:08.823Z,60.98
2016-06-09T11:40:08.873Z,60.5
2016-06-09T11:41:08.923Z,59.34
2016-06-09T11:42:08.972Z,61.08
2016-06-09T11:43:09.023Z,60.98
2016-06-09T11:44:09.073Z,59.73
2016-06-09T11:45:09.123Z,58.7
2016-06-09T11:46:09.173Z,58.42
2016-06-09T11:47:09.223Z,57.87
2016-06-09T11:48:09.273Z,57.87
2016-06-09T11:49:09.306Z,57.68
2016-06-09T11:50:09.372Z,57.97
2016-06-09T11:51:09.313Z,57.2
2016-06-09T11:52:09.644Z,56.62
2016-06-09T11:53:09.506Z,56.45
2016-06-09T11:54:09.557Z,55.78
2016-06-09T11:55:09.606Z,56.26
2016-06-09T11:56:09.657Z,55.98
2016-06-09T11:57:09.706Z,55.98
2016-06-09T11:58:09.757Z,55.98
2016-06-09T11:59:09.822Z,55.33
2016-06-09T12:00:09.855Z,55.43
2016-06-09T12:01:09.906Z,56.16
2016-06-09T12:02:09.956Z,55.88
2016-06-09T12:03:10.006Z,56.16
2016-06-09T12:04:09.884Z,57.32
2016-06-09T12:05:10.090Z,57.87
2016-06-09T12:06:10.156Z,57
2016-06-09T12:07:10.690Z,56.74
2016-06-09T12:08:10.255Z,57.39
2016-06-09T12:09:10.290Z,57.87
2016-06-09T12:10:10.355Z,57.87
2016-06-09T12:11:10.390Z,56.91
2016-06-09T12:12:10.439Z,56.74
2016-06-09T12:13:10.489Z,59.92
2016-06-09T12:14:10.383Z,58.09
2016-06-09T12:15:10.590Z,57.51
2016-06-09T12:16:10.640Z,56.77
2016-06-09T12:17:10.690Z,57.42
2016-06-09T12:18:10.740Z,57.32
2016-06-09T12:19:10.789Z,58.15
2016-06-09T12:20:10.839Z,58.54
2016-06-09T12:21:11.217Z,58.37
2016-06-09T12:22:10.939Z,56.65
2016-06-09T12:23:11.005Z,56.67
2016-06-09T12:24:11.040Z,57.03
2016-06-09T12:25:11.089Z,56.38
2016-06-09T12:26:11.140Z,56.87
2016-06-09T12:27:11.174Z,57.7
2016-06-09T12:28:11.238Z,58.47
2016-06-09T12:29:11.289Z,57.03
2016-06-09T12:30:11.339Z,56.77
2016-06-09T12:31:11.373Z,57.06
2016-06-09T12:32:11.423Z,57.25
2016-06-09T12:33:11.473Z,57.15
2016-06-09T12:34:11.523Z,56.03
2016-06-09T12:35:11.573Z,54.13
2016-06-09T12:36:11.499Z,56.03
2016-06-09T12:37:12.330Z,54
2016-06-09T12:38:11.739Z,56.22
2016-06-09T12:39:11.788Z,54.68
2016-06-09T12:40:11.838Z,55.55
2016-06-09T12:41:11.873Z,54.32
2016-06-09T12:42:11.939Z,52.78
2016-06-09T12:43:11.988Z,54.52
2016-06-09T12:44:12.038Z,53.55
2016-06-09T12:45:11.932Z,54.42
2016-06-09T12:46:12.138Z,55.35
2016-06-09T12:47:12.188Z,55.23
2016-06-09T12:48:12.238Z,56
2016-06-09T12:49:12.288Z,57.03
2016-06-09T12:50:12.339Z,57.6
2016-06-09T12:51:12.451Z,57.77
2016-06-09T12:52:12.719Z,58.45
2016-06-09T12:53:12.503Z,58.83
2016-06-09T12:54:12.537Z,58.45
2016-06-09T12:55:12.588Z,57.77
2016-06-09T12:56:12.637Z,57.99
2016-06-09T12:57:12.688Z,57.8